Wapella, Canada
Current Conditions -  °F | °C
As of 5:00 PM on Saturday 25 Oct 2014 (Local Time) from CYQV Reporting Station
Clear Clear  
Wind Chill: 46°   Ceiling: Unl
Heat Index: 48°   Visibility: 9mi
Dew Point: 27°   Wind: 5mph
Humidity: 43%   Direction: 310°NW
Pressure: 29.98"   Gusts: NA
Location:  50.25°N, 101.97°W
Report Text: CYQV 252300Z AUTO 31004KT 9SM CLR 09/M03 A2998 RMK SLP170
Loading
Personal Weather Stations






























Interactive Weather Map
Tropical Storm Tracking
New forecast layout! Learn more

10-Day Weather Forecast

Advertisements
Track Severe Weather on mobile